Date,TemperatureHighF,TemperatureAvgF,TemperatureLowF,DewpointHighF,DewpointAvgF,DewpointLowF,HumidityHigh,HumidityAvg,HumidityLow,PressureMaxIn,PressureMinIn,WindSpeedMaxMPH,WindSpeedAvgMPH,GustSpeedMaxMPH,PrecipitationSumIn
2013-11-1,69.1,64.2,61.8,65.0,61.2,58.0,95,90,82,29.90,29.59,16,4,21,0.02
2013-11-2,63.0,57.6,52.3,60.0,54.8,51.0,96,90,71,29.73,29.62,6,1,11,0.08
2013-11-3,56.9,46.7,39.5,50.0,40.2,25.0,91,79,55,30.38,29.72,13,4,19,0.03
2013-11-4,44.6,39.6,35.7,32.0,29.2,26.0,84,67,51,30.71,30.38,10,3,19,0.03
2013-11-5,52.3,40.8,32.1,37.0,33.5,30.0,95,76,55,30.72,30.56,3,0,8,0.00
2013-11-6,59.5,49.0,35.1,54.0,45.5,34.0,97,88,71,30.55,30.12,7,1,10,0.00
2013-11-7,63.1,57.1,46.5,62.0,54.8,38.0,96,92,73,30.12,29.71,9,4,18,1.04
2013-11-8,49.2,44.5,39.8,38.0,30.5,25.0,71,59,49,30.14,29.84,15,6,24,1.04
2013-11-9,48.6,42.9,38.0,39.0,29.6,26.0,70,60,46,30.24,30.10,13,4,19,0.00
2013-11-10,57.7,52.3,47.1,47.0,41.9,36.0,84,68,59,30.09,29.76,13,4,27,0.11
2013-11-11,54.5,48.0,42.7,45.0,35.1,30.0,73,62,47,30.13,29.91,14,6,25,0.11
2013-11-12,55.3,39.6,30.8,47.0,32.4,21.0,93,77,57,30.20,29.93,14,4,22,0.12
2013-11-13,37.1,33.0,28.3,23.0,19.6,16.0,72,59,46,30.30,30.19,15,5,18,0.02
2013-11-14,51.6,46.2,36.5,38.0,33.1,23.0,77,61,46,30.24,30.10,17,6,24,0.02
2013-11-15,59.8,53.4,49.7,49.0,42.2,32.0,87,67,48,30.26,30.18,15,3,16,0.00
2013-11-16,60.5,48.6,33.9,46.0,39.8,32.0,95,74,46,30.35,30.24,8,2,11,0.00
2013-11-17,61.4,51.6,34.4,58.0,49.3,33.0,97,92,71,30.35,29.90,5,1,12,0.12
2013-11-18,63.0,58.8,53.3,61.0,53.4,41.0,98,83,60,29.89,29.62,10,4,22,0.40
2013-11-19,53.6,43.7,34.5,41.0,27.5,22.0,62,53,45,30.29,29.70,15,5,21,0.40
2013-11-20,41.2,33.2,26.2,24.0,20.4,18.0,81,60,43,30.62,30.30,12,4,18,0.00
2013-11-21,48.1,35.8,24.4,36.0,30.0,23.0,95,81,56,30.65,30.43,7,1,10,0.00
2013-11-22,54.3,48.8,36.7,53.0,46.8,34.0,96,92,89,30.42,29.86,9,2,16,0.14
2013-11-23,53.0,45.4,34.5,51.0,31.2,18.0,93,60,35,29.91,29.81,15,5,24,0.01
2013-11-24,34.3,27.3,24.3,17.0,8.4,0.0,56,45,30,30.23,29.83,22,9,33,0.01
2013-11-25,41.4,27.8,21.7,33.0,10.5,2.0,78,50,28,30.41,30.23,19,4,22,0.00
2013-11-26,49.1,44.0,41.5,48.0,36.7,30.0,95,76,59,30.36,30.05,13,3,18,0.08
2013-11-27,61.8,54.4,40.7,61.0,53.1,36.0,97,95,83,30.03,29.18,15,6,29,1.37
2013-11-28,40.7,34.6,29.0,36.0,21.4,12.0,83,60,44,30.47,29.53,17,7,26,1.38
2013-11-29,35.9,31.5,27.6,20.0,16.3,12.0,68,54,47,30.74,30.47,12,3,14,0.00
2013-11-30,39.6,30.7,23.2,31.0,21.7,12.0,88,70,51,30.78,30.49,6,1,10,0.00